createdAt,value
2023-04-18T00:00:10.742Z,14.68
2023-04-18T00:02:44.029Z,14.80
2023-04-18T00:05:12.338Z,14.40
2023-04-18T00:07:39.419Z,15.10
2023-04-18T00:10:07.374Z,14.75
2023-04-18T00:12:34.496Z,14.13
2023-04-18T00:15:02.850Z,14.40
2023-04-18T00:17:30.498Z,14.20
2023-04-18T00:19:58.279Z,13.70
2023-04-18T00:22:26.876Z,13.48
2023-04-18T00:24:53.751Z,13.40
2023-04-18T00:27:21.360Z,12.67
2023-04-18T00:29:48.427Z,13.38
2023-04-18T00:32:16.921Z,12.98
2023-04-18T00:34:43.830Z,12.35
2023-04-18T00:37:12.352Z,12.50
2023-04-18T00:39:39.134Z,13.13
2023-04-18T00:42:06.304Z,12.35
2023-04-18T00:44:33.248Z,12.77
2023-04-18T00:47:00.191Z,11.98
2023-04-18T00:49:27.564Z,12.27
2023-04-18T00:51:56.451Z,12.00
2023-04-18T00:54:25.309Z,11.85
2023-04-18T00:56:52.153Z,12.35
2023-04-18T00:59:19.186Z,12.52
2023-04-18T01:01:46.337Z,11.80
2023-04-18T01:04:13.763Z,12.00
2023-04-18T01:06:41.738Z,11.68
2023-04-18T01:09:08.581Z,11.20
2023-04-18T01:11:36.037Z,11.70
2023-04-18T01:14:05.315Z,11.25
2023-04-18T01:16:34.983Z,11.17
2023-04-18T01:19:03.619Z,11.00
2023-04-18T01:21:31.298Z,11.60
2023-04-18T01:24:07.690Z,11.02
2023-04-18T01:26:34.612Z,11.52
2023-04-18T01:29:05.770Z,11.77
2023-04-18T01:31:39.507Z,10.80
2023-04-18T01:34:07.773Z,10.75
2023-04-18T01:36:36.124Z,10.93
2023-04-18T01:39:03.547Z,10.73
2023-04-18T01:41:32.688Z,10.50
2023-04-18T01:44:00.512Z,10.45
2023-04-18T01:46:28.381Z,10.57
2023-04-18T01:48:56.037Z,9.95
2023-04-18T01:51:23.187Z,9.95
2023-04-18T01:53:50.442Z,9.88
2023-04-18T01:56:17.341Z,9.77
2023-04-18T01:58:44.120Z,9.65
2023-04-18T02:01:12.962Z,9.00
2023-04-18T02:03:40.361Z,9.80
2023-04-18T02:06:07.649Z,9.53
2023-04-18T02:08:35.964Z,9.45
2023-04-18T02:11:05.351Z,8.77
2023-04-18T02:13:32.292Z,9.23
2023-04-18T02:15:59.194Z,9.45
2023-04-18T02:18:26.767Z,9.10
2023-04-18T02:20:53.738Z,9.10
2023-04-18T02:23:22.019Z,8.70
2023-04-18T02:25:48.846Z,9.10
2023-04-18T02:28:17.564Z,8.90
2023-04-18T02:30:44.530Z,8.33
2023-04-18T02:33:11.389Z,9.68
2023-04-18T02:35:38.701Z,9.15
2023-04-18T02:38:05.816Z,8.63
2023-04-18T02:40:32.763Z,8.77
2023-04-18T02:42:59.849Z,8.27
2023-04-18T02:45:26.753Z,8.73
2023-04-18T02:47:56.695Z,9.50
2023-04-18T02:50:25.066Z,8.90
2023-04-18T02:52:53.556Z,7.95
2023-04-18T02:55:22.512Z,8.30
2023-04-18T02:57:49.537Z,8.23
2023-04-18T03:00:39.252Z,8.57
2023-04-18T03:03:29.082Z,8.65
2023-04-18T03:06:05.186Z,8.60
2023-04-18T03:08:33.666Z,8.27
2023-04-18T03:11:00.868Z,8.18
2023-04-18T03:13:29.941Z,8.63
2023-04-18T03:15:57.467Z,8.30
2023-04-18T03:18:25.010Z,8.52
2023-04-18T03:20:55.573Z,8.87
2023-04-18T03:23:22.417Z,8.65
2023-04-18T03:25:49.710Z,9.20
2023-04-18T03:28:16.931Z,8.93
2023-04-18T03:30:44.017Z,8.63
2023-04-18T03:33:10.854Z,8.32
2023-04-18T03:35:38.530Z,8.75
2023-04-18T03:38:05.414Z,8.75
2023-04-18T03:40:36.669Z,8.50
2023-04-18T03:43:09.882Z,8.73
2023-04-18T03:45:37.010Z,8.80
2023-04-18T03:48:04.058Z,8.38
2023-04-18T03:50:35.191Z,9.50
2023-04-18T03:53:03.867Z,9.27
2023-04-18T03:55:33.952Z,9.25
2023-04-18T03:58:01.693Z,9.17
2023-04-18T04:00:29.889Z,9.57
2023-04-18T04:03:05.027Z,9.30
2023-04-18T04:05:32.027Z,10.02
2023-04-18T04:07:59.102Z,9.73
2023-04-18T04:10:25.958Z,9.17
2023-04-18T04:12:53.624Z,9.40
2023-04-18T04:15:20.783Z,9.68
2023-04-18T04:17:54.332Z,10.50
2023-04-18T04:20:24.683Z,9.98
2023-04-18T04:22:59.379Z,10.27
2023-04-18T04:25:28.690Z,10.80
2023-04-18T04:28:01.336Z,9.88
2023-04-18T04:30:28.690Z,9.88
2023-04-18T04:32:56.374Z,10.45
2023-04-18T04:35:23.257Z,10.63
2023-04-18T04:37:51.756Z,10.05
2023-04-18T04:40:31.621Z,9.95
2023-04-18T04:43:12.769Z,10.02
2023-04-18T04:45:41.822Z,9.85
2023-04-18T04:48:09.414Z,10.37
2023-04-18T04:50:38.257Z,10.50
2023-04-18T04:53:06.358Z,10.10
2023-04-18T04:55:33.815Z,10.32
2023-04-18T04:58:02.278Z,10.40
2023-04-18T05:00:45.148Z,10.10
2023-04-18T05:03:12.203Z,10.63
2023-04-18T05:05:39.338Z,10.05
2023-04-18T05:08:06.446Z,10.88
2023-04-18T05:10:34.668Z,10.60
2023-04-18T05:13:01.515Z,10.60
2023-04-18T05:15:28.335Z,10.70
2023-04-18T05:17:55.196Z,10.15
2023-04-18T05:20:22.216Z,10.07
2023-04-18T05:22:49.332Z,10.10
2023-04-18T05:25:16.137Z,10.50
2023-04-18T05:27:43.408Z,10.52
2023-04-18T05:30:10.456Z,11.10
2023-04-18T05:32:39.027Z,10.15
2023-04-18T05:35:07.291Z,10.48
2023-04-18T05:37:34.152Z,10.83
2023-04-18T05:40:01.285Z,10.77
2023-04-18T05:42:28.164Z,10.50
2023-04-18T05:44:54.948Z,10.60
2023-04-18T05:47:23.993Z,10.02
2023-04-18T05:49:51.031Z,10.47
2023-04-18T05:52:17.921Z,10.30
2023-04-18T05:54:44.735Z,10.00
2023-04-18T05:57:11.549Z,10.50
2023-04-18T05:59:38.324Z,10.85
2023-04-18T06:02:05.197Z,10.37
2023-04-18T06:04:32.240Z,10.32
2023-04-18T06:06:59.119Z,10.40
2023-04-18T06:09:25.957Z,10.32
2023-04-18T06:11:52.733Z,10.38
2023-04-18T06:14:19.590Z,10.40
2023-04-18T06:16:46.338Z,11.05
2023-04-18T06:19:13.207Z,10.60
2023-04-18T06:21:42.079Z,10.35
2023-04-18T06:24:09.680Z,10.05
2023-04-18T06:26:36.481Z,10.33
2023-04-18T06:29:03.336Z,10.35
2023-04-18T06:31:30.194Z,10.18
2023-04-18T06:33:57.033Z,10.27
2023-04-18T06:36:24.157Z,10.30
2023-04-18T06:38:50.981Z,10.43
2023-04-18T06:41:17.776Z,10.02
2023-04-18T06:43:59.780Z,10.57
2023-04-18T06:46:30.465Z,9.90
2023-04-18T06:48:57.585Z,10.00
2023-04-18T06:51:24.395Z,10.23
2023-04-18T06:53:53.010Z,10.40
2023-04-18T06:56:20.555Z,10.10
2023-04-18T06:58:48.055Z,10.13
2023-04-18T07:01:15.154Z,9.95
2023-04-18T07:03:42.110Z,9.93
2023-04-18T07:06:10.529Z,9.40
2023-04-18T07:08:37.920Z,9.43
2023-04-18T07:11:05.555Z,9.73
2023-04-18T07:13:32.377Z,9.55
2023-04-18T07:15:59.450Z,9.20
2023-04-18T07:18:36.628Z,9.40
2023-04-18T07:21:07.531Z,9.13
2023-04-18T07:23:35.066Z,9.07
2023-04-18T07:26:02.977Z,9.40
2023-04-18T07:28:31.432Z,8.87
2023-04-18T07:30:59.280Z,9.07
2023-04-18T07:33:26.173Z,8.60
2023-04-18T07:35:53.173Z,8.80
2023-04-18T07:38:20.560Z,8.88
2023-04-18T07:40:47.492Z,8.83
2023-04-18T07:43:14.989Z,8.85
2023-04-18T07:45:43.429Z,8.48
2023-04-18T07:48:11.299Z,8.35
2023-04-18T07:50:38.361Z,8.82
2023-04-18T07:53:05.242Z,7.57
2023-04-18T07:55:32.428Z,8.30
2023-04-18T07:57:59.243Z,8.07
2023-04-18T08:00:26.467Z,7.90
2023-04-18T08:02:53.597Z,8.20
2023-04-18T08:05:20.597Z,8.03
2023-04-18T08:07:47.482Z,8.05
2023-04-18T08:10:14.278Z,7.80
2023-04-18T08:12:41.156Z,7.95
2023-04-18T08:15:08.679Z,7.78
2023-04-18T08:17:35.928Z,7.47
2023-04-18T08:20:07.168Z,7.50
2023-04-18T08:22:34.290Z,7.68
2023-04-18T08:25:05.437Z,7.15
2023-04-18T08:27:32.905Z,7.45
2023-04-18T08:30:00.595Z,7.30
2023-04-18T08:32:27.692Z,7.38
2023-04-18T08:34:56.104Z,7.03
2023-04-18T08:37:23.054Z,7.40
2023-04-18T08:39:50.146Z,7.07
2023-04-18T08:42:21.551Z,7.00
2023-04-18T08:44:48.506Z,6.50
2023-04-18T08:47:16.377Z,7.35
2023-04-18T08:49:47.016Z,6.70
2023-04-18T08:52:16.763Z,6.88
2023-04-18T08:54:46.606Z,7.13
2023-04-18T08:57:16.607Z,6.50
2023-04-18T08:59:46.779Z,6.30
2023-04-18T09:02:15.684Z,6.57
2023-04-18T09:04:45.197Z,6.22
2023-04-18T09:07:14.486Z,6.50
2023-04-18T09:09:51.160Z,7.40
2023-04-18T09:12:22.469Z,6.45
2023-04-18T09:14:51.732Z,6.55
2023-04-18T09:17:36.966Z,7.10
2023-04-18T09:20:05.632Z,7.10
2023-04-18T09:22:48.702Z,6.72
2023-04-18T09:25:27.218Z,6.40
2023-04-18T09:27:54.176Z,6.55
2023-04-18T09:30:54.288Z,6.35
2023-04-18T09:33:28.364Z,6.53
2023-04-18T09:35:56.418Z,5.88
2023-04-18T09:38:41.857Z,6.28
2023-04-18T09:41:13.269Z,5.97
2023-04-18T09:43:40.440Z,5.90
2023-04-18T09:46:08.839Z,6.23
2023-04-18T09:48:36.584Z,6.05
2023-04-18T09:51:11.171Z,5.60
2023-04-18T09:53:44.549Z,5.50
2023-04-18T09:56:26.189Z,5.35
2023-04-18T09:59:31.929Z,5.20
2023-04-18T10:01:59.748Z,4.40
2023-04-18T10:04:28.372Z,4.60
2023-04-18T10:06:55.437Z,4.90
2023-04-18T10:09:23.174Z,4.75
2023-04-18T10:11:50.484Z,4.17
2023-04-18T10:14:18.034Z,4.25
2023-04-18T10:16:45.753Z,4.20
2023-04-18T10:19:26.672Z,7.50
2023-04-18T10:21:58.413Z,8.70
2023-04-18T10:24:54.280Z,6.13
2023-04-18T10:27:49.229Z,5.70
2023-04-18T10:30:17.027Z,9.15
2023-04-18T10:32:46.005Z,12.23
2023-04-18T10:35:13.052Z,9.73
2023-04-18T10:37:50.450Z,5.40
2023-04-18T10:40:17.796Z,5.10
2023-04-18T10:42:47.374Z,4.50
2023-04-18T10:45:18.415Z,4.70
2023-04-18T10:47:45.273Z,5.40
2023-04-18T10:50:12.723Z,4.97
2023-04-18T10:52:39.699Z,5.50
2023-04-18T10:55:19.166Z,4.70
2023-04-18T10:57:48.741Z,5.20
2023-04-18T11:00:21.408Z,5.15
2023-04-18T11:02:54.034Z,4.50
2023-04-18T11:05:28.790Z,4.28
2023-04-18T11:07:55.721Z,4.85
2023-04-18T11:10:25.589Z,4.90
2023-04-18T11:12:53.562Z,5.03
2023-04-18T11:15:22.590Z,4.77
2023-04-18T11:18:16.025Z,4.50
2023-04-18T11:20:50.736Z,4.40
2023-04-18T11:23:21.433Z,4.18
2023-04-18T11:25:51.487Z,4.55
2023-04-18T11:28:22.436Z,4.30
2023-04-18T11:30:49.276Z,4.20
2023-04-18T11:33:16.879Z,3.83
2023-04-18T11:35:45.568Z,3.67
2023-04-18T11:38:14.148Z,3.95
2023-04-18T11:40:48.320Z,4.07
2023-04-18T11:43:24.535Z,4.50
2023-04-18T11:45:52.535Z,4.70
2023-04-18T11:48:19.380Z,4.50
2023-04-18T11:50:46.496Z,4.72
2023-04-18T11:53:13.360Z,5.13
2023-04-18T11:55:40.282Z,5.65
2023-04-18T11:58:07.253Z,5.72
2023-04-18T12:00:39.222Z,5.45
2023-04-18T12:03:11.782Z,6.10
2023-04-18T12:05:41.068Z,6.00
2023-04-18T12:08:09.441Z,5.82
2023-04-18T12:10:36.453Z,5.90
2023-04-18T12:13:08.692Z,6.10
2023-04-18T12:15:39.528Z,6.18
2023-04-18T12:18:09.791Z,6.07
2023-04-18T12:20:51.559Z,6.20
2023-04-18T12:23:30.672Z,6.90
2023-04-18T12:26:01.501Z,6.90
2023-04-18T12:28:28.735Z,8.60
2023-04-18T12:30:55.828Z,7.10
2023-04-18T12:33:22.975Z,7.03
2023-04-18T12:35:52.307Z,7.18
2023-04-18T12:38:23.559Z,7.60
2023-04-18T12:40:52.191Z,7.10
2023-04-18T12:43:20.004Z,6.80
2023-04-18T12:45:47.314Z,7.20
2023-04-18T12:48:14.238Z,6.93
2023-04-18T12:50:41.147Z,7.22
2023-04-18T12:53:07.996Z,7.50
2023-04-18T12:55:34.828Z,7.40
2023-04-18T12:58:01.810Z,7.50
2023-04-18T13:00:31.358Z,7.68
2023-04-18T13:02:59.100Z,8.10
2023-04-18T13:05:29.921Z,8.30
2023-04-18T13:08:15.409Z,8.00
2023-04-18T13:10:43.630Z,8.35
2023-04-18T13:13:10.783Z,7.97
2023-04-18T13:15:38.005Z,7.80
2023-04-18T13:18:06.556Z,8.07
2023-04-18T13:20:34.370Z,8.53
2023-04-18T13:23:02.799Z,8.20
2023-04-18T13:25:29.686Z,8.50
2023-04-18T13:27:58.508Z,8.52
2023-04-18T13:30:25.549Z,8.30
2023-04-18T13:32:52.580Z,8.20
2023-04-18T13:35:19.569Z,8.43
2023-04-18T13:37:46.657Z,8.52
2023-04-18T13:40:13.844Z,9.20
2023-04-18T13:42:40.757Z,9.18
2023-04-18T13:45:07.917Z,8.60
2023-04-18T13:47:34.901Z,9.13
2023-04-18T13:50:01.944Z,9.10
2023-04-18T13:52:28.861Z,9.40
2023-04-18T13:54:55.672Z,9.18
2023-04-18T13:57:23.169Z,9.33
2023-04-18T13:59:50.017Z,8.75
2023-04-18T14:02:16.927Z,9.88
2023-04-18T14:04:44.127Z,9.60
2023-04-18T14:07:11.190Z,10.20
2023-04-18T14:09:38.102Z,10.03
2023-04-18T14:12:05.214Z,10.20
2023-04-18T14:14:32.030Z,9.70
2023-04-18T14:16:58.854Z,10.13
2023-04-18T14:19:27.277Z,10.60
2023-04-18T14:21:54.147Z,10.43
2023-04-18T14:24:21.296Z,10.68
2023-04-18T14:26:48.307Z,10.82
2023-04-18T14:29:15.264Z,10.15
2023-04-18T14:31:42.374Z,10.38
2023-04-18T14:34:09.807Z,10.30
2023-04-18T14:36:37.009Z,10.57
2023-04-18T14:39:04.679Z,9.80
2023-04-18T14:41:31.632Z,10.40
2023-04-18T14:43:58.671Z,9.80
2023-04-18T14:46:27.208Z,10.27
2023-04-18T14:48:54.203Z,10.60
2023-04-18T14:51:21.063Z,9.98
2023-04-18T14:53:47.873Z,9.85
2023-04-18T14:56:15.973Z,9.90
2023-04-18T14:58:43.792Z,9.87
2023-04-18T15:01:10.616Z,9.68
2023-04-18T15:03:37.759Z,9.75
2023-04-18T15:06:05.019Z,10.07
2023-04-18T15:08:32.871Z,10.68
2023-04-18T15:10:59.838Z,9.20
2023-04-18T15:13:26.844Z,9.45
2023-04-18T15:15:54.908Z,9.50
2023-04-18T15:18:21.994Z,9.90
2023-04-18T15:20:48.948Z,9.45
2023-04-18T15:23:16.320Z,9.67
2023-04-18T15:25:44.865Z,9.35
2023-04-18T15:28:13.728Z,9.25
2023-04-18T15:30:40.570Z,9.63
2023-04-18T15:33:07.901Z,9.63
2023-04-18T15:35:35.217Z,9.20
2023-04-18T15:38:02.143Z,8.75
2023-04-18T15:40:28.981Z,9.30
2023-04-18T15:42:57.694Z,9.07
2023-04-18T15:45:24.536Z,9.48
2023-04-18T15:47:51.707Z,8.97
2023-04-18T15:50:18.791Z,8.82
2023-04-18T15:52:45.748Z,8.82
2023-04-18T15:55:13.415Z,9.43
2023-04-18T15:57:41.806Z,9.68
2023-04-18T16:00:16.341Z,10.10
2023-04-18T16:02:46.672Z,9.48
2023-04-18T16:05:14.233Z,9.73
2023-04-18T16:07:42.242Z,9.73
2023-04-18T16:10:10.905Z,9.07
2023-04-18T16:12:38.614Z,9.27
2023-04-18T16:15:07.058Z,9.40
2023-04-18T16:17:34.363Z,9.23
2023-04-18T16:20:01.786Z,8.80
2023-04-18T16:22:28.760Z,9.02
2023-04-18T16:24:55.627Z,8.90
2023-04-18T16:27:22.597Z,8.93
2023-04-18T16:29:49.659Z,8.48
2023-04-18T16:32:16.474Z,8.82
2023-04-18T16:34:43.439Z,8.48
2023-04-18T16:37:10.397Z,8.70
2023-04-18T16:39:37.498Z,8.80
2023-04-18T16:42:04.715Z,8.75
2023-04-18T16:44:32.527Z,9.00
2023-04-18T16:46:59.460Z,8.75
2023-04-18T16:49:26.322Z,8.63
2023-04-18T16:51:53.231Z,8.57
2023-04-18T16:54:20.162Z,8.52
2023-04-18T16:56:47.420Z,8.30
2023-04-18T16:59:14.285Z,8.88
2023-04-18T17:01:41.258Z,8.50
2023-04-18T17:04:08.140Z,8.48
2023-04-18T17:06:34.918Z,8.30
2023-04-18T17:09:02.073Z,8.18
2023-04-18T17:11:28.890Z,8.05
2023-04-18T17:13:56.327Z,8.60
2023-04-18T17:16:23.343Z,7.88
2023-04-18T17:18:50.183Z,8.38
2023-04-18T17:21:17.130Z,8.20
2023-04-18T17:23:44.055Z,8.30
2023-04-18T17:26:10.995Z,8.07
2023-04-18T17:28:37.755Z,7.78
2023-04-18T17:31:04.862Z,7.70
2023-04-18T17:33:31.835Z,8.00
2023-04-18T17:35:58.767Z,8.30
2023-04-18T17:38:25.738Z,8.13
2023-04-18T17:41:03.254Z,7.88
2023-04-18T17:43:30.179Z,7.82
2023-04-18T17:46:00.094Z,8.07
2023-04-18T17:48:27.127Z,8.30
2023-04-18T17:50:54.041Z,8.50
2023-04-18T17:53:20.972Z,7.82
2023-04-18T17:55:51.291Z,7.90
2023-04-18T17:58:19.363Z,8.68
2023-04-18T18:00:46.468Z,8.10
2023-04-18T18:03:17.106Z,8.13
2023-04-18T18:05:49.290Z,8.30
2023-04-18T18:08:16.191Z,7.82
2023-04-18T18:10:42.995Z,7.97
2023-04-18T18:13:09.991Z,8.07
2023-04-18T18:15:36.842Z,8.23
2023-04-18T18:18:03.872Z,8.25
2023-04-18T18:20:30.835Z,8.02
2023-04-18T18:22:59.845Z,8.05
2023-04-18T18:25:27.574Z,8.30
2023-04-18T18:27:54.603Z,8.10
2023-04-18T18:30:21.492Z,8.10
2023-04-18T18:32:48.407Z,7.82
2023-04-18T18:35:15.443Z,7.70
2023-04-18T18:37:42.328Z,8.20
2023-04-18T18:40:09.530Z,7.70
2023-04-18T18:42:36.754Z,7.68
2023-04-18T18:45:05.871Z,8.60
2023-04-18T18:47:34.186Z,8.27
2023-04-18T18:50:01.300Z,7.43
2023-04-18T18:52:29.706Z,7.60
2023-04-18T18:54:56.797Z,8.27
2023-04-18T18:57:23.738Z,8.25
2023-04-18T18:59:50.526Z,8.15
2023-04-18T19:02:17.624Z,8.65
2023-04-18T19:04:44.894Z,8.27
2023-04-18T19:07:11.852Z,8.15
2023-04-18T19:09:38.613Z,8.48
2023-04-18T19:12:05.932Z,8.10
2023-04-18T19:14:33.128Z,9.05
2023-04-18T19:17:00.227Z,8.60
2023-04-18T19:19:26.967Z,8.25
2023-04-18T19:21:53.899Z,8.32
2023-04-18T19:24:21.055Z,8.25
2023-04-18T19:26:48.101Z,8.98
2023-04-18T19:29:15.045Z,8.93
2023-04-18T19:31:43.772Z,8.63
2023-04-18T19:34:11.945Z,8.57
2023-04-18T19:36:38.952Z,8.60
2023-04-18T19:39:05.833Z,9.02
2023-04-18T19:41:32.752Z,8.70
2023-04-18T19:43:59.567Z,9.30
2023-04-18T19:46:26.801Z,8.82
2023-04-18T19:48:53.690Z,8.80
2023-04-18T19:51:20.426Z,8.93
2023-04-18T19:53:47.243Z,9.00
2023-04-18T19:56:14.975Z,9.13
2023-04-18T19:58:46.738Z,8.70
2023-04-18T20:01:18.306Z,9.18
2023-04-18T20:03:45.751Z,8.93
2023-04-18T20:06:13.432Z,9.00
2023-04-18T20:08:45.710Z,9.05
2023-04-18T20:11:16.381Z,8.68
2023-04-18T20:13:43.181Z,8.27
2023-04-18T20:16:11.265Z,8.52
2023-04-18T20:18:41.365Z,8.30
2023-04-18T20:21:09.453Z,8.20
2023-04-18T20:23:36.934Z,8.25
2023-04-18T20:26:04.353Z,7.70
2023-04-18T20:28:31.897Z,8.20
2023-04-18T20:30:59.141Z,8.17
2023-04-18T20:33:26.031Z,8.20
2023-04-18T20:35:54.580Z,7.90
2023-04-18T20:38:25.966Z,7.53
2023-04-18T20:40:54.245Z,7.68
2023-04-18T20:43:21.576Z,7.77
2023-04-18T20:45:51.090Z,7.47
2023-04-18T20:48:18.379Z,7.10
2023-04-18T20:50:50.980Z,7.18
2023-04-18T20:53:26.071Z,7.50
2023-04-18T20:55:53.066Z,7.17
2023-04-18T20:58:19.919Z,7.53
2023-04-18T21:00:48.262Z,7.60
2023-04-18T21:03:18.141Z,7.18
2023-04-18T21:05:45.531Z,6.47
2023-04-18T21:08:12.527Z,7.53
2023-04-18T21:10:39.818Z,7.60
2023-04-18T21:13:07.128Z,7.50
2023-04-18T21:15:35.607Z,7.70
2023-04-18T21:18:02.510Z,7.53
2023-04-18T21:20:29.381Z,7.40
2023-04-18T21:22:56.318Z,7.60
2023-04-18T21:25:23.219Z,7.70
2023-04-18T21:27:50.851Z,7.50
2023-04-18T21:30:17.810Z,7.25
2023-04-18T21:32:46.030Z,7.27
2023-04-18T21:35:13.260Z,7.57
2023-04-18T21:37:40.096Z,7.20
2023-04-18T21:40:07.688Z,7.35
2023-04-18T21:42:35.609Z,7.32
2023-04-18T21:45:02.698Z,7.57
2023-04-18T21:47:29.631Z,7.82
2023-04-18T21:49:56.418Z,7.35
2023-04-18T21:52:23.376Z,6.90
2023-04-18T21:54:50.258Z,6.85
2023-04-18T21:57:17.119Z,7.03
2023-04-18T21:59:43.969Z,6.97
2023-04-18T22:02:10.810Z,6.50
2023-04-18T22:04:38.124Z,7.20
2023-04-18T22:07:05.136Z,6.88
2023-04-18T22:09:36.171Z,6.83
2023-04-18T22:12:05.231Z,7.20
2023-04-18T22:14:32.252Z,7.28
2023-04-18T22:16:59.306Z,7.38
2023-04-18T22:19:29.439Z,7.20
2023-04-18T22:21:56.483Z,6.80
2023-04-18T22:24:24.565Z,7.10
2023-04-18T22:26:51.883Z,6.90
2023-04-18T22:29:18.828Z,6.93
2023-04-18T22:31:45.717Z,5.90
2023-04-18T22:34:12.668Z,6.90
2023-04-18T22:36:39.610Z,6.72
2023-04-18T22:39:06.449Z,7.18
2023-04-18T22:41:33.309Z,7.10
2023-04-18T22:44:00.134Z,6.85
2023-04-18T22:46:27.192Z,7.03
2023-04-18T22:48:54.257Z,7.50
2023-04-18T22:51:21.106Z,7.13
2023-04-18T22:53:48.126Z,7.13
2023-04-18T22:56:15.004Z,7.53
2023-04-18T22:58:41.769Z,7.20
2023-04-18T23:01:08.647Z,7.60
2023-04-18T23:03:35.820Z,7.50
2023-04-18T23:06:02.748Z,7.35
2023-04-18T23:08:29.496Z,7.68
2023-04-18T23:10:56.366Z,7.40
2023-04-18T23:13:23.169Z,7.43
2023-04-18T23:15:50.040Z,7.75
2023-04-18T23:18:16.785Z,7.40
2023-04-18T23:20:43.631Z,7.20
2023-04-18T23:23:10.511Z,7.07
2023-04-18T23:25:37.366Z,7.60
2023-04-18T23:28:04.428Z,7.38
2023-04-18T23:30:31.399Z,6.88
2023-04-18T23:32:58.265Z,7.47
2023-04-18T23:35:25.060Z,6.90
2023-04-18T23:37:52.051Z,7.03
2023-04-18T23:40:19.160Z,7.50
2023-04-18T23:42:47.048Z,7.60
2023-04-18T23:45:13.881Z,7.75
2023-04-18T23:47:41.111Z,7.70
2023-04-18T23:50:08.554Z,7.57
2023-04-18T23:52:35.459Z,7.57
2023-04-18T23:55:02.412Z,7.53
2023-04-18T23:57:29.334Z,7.80
2023-04-18T23:59:56.260Z,7.27
